Terminal Aerodrome Forecast
Issued by NWS Central Illinois

Home | Current Version | Previous Version | Text Only | Print | Product List | Glossary On
Versions: 1 2 3 4 5 6 7 8 9 10 11 12 13 14 15 16 17 18 19 20
671
FTUS43 KILX 271133
TAFPIA
TAF
KPIA 271133Z 2712/2812 25006KT P6SM SKC
     FM271600 28013G22KT P6SM SKC
     FM280000 25004KT P6SM SCT250
     FM280400 26004KT P6SM BKN120
     FM280900 31005KT P6SM OVC050=

USA.gov is the U.S. government's official web portal to all federal, state and local government web resources and services.